sensor_id;sensor_type;location;lat;lon;timestamp;P1;durP1;ratioP1;P2;durP2;ratioP2
78794;SDS011;68144;50.892;3.064;2024-01-10T00:00:25;19.00;;;9.20;;
78794;SDS011;68144;50.892;3.064;2024-01-10T00:00:56;19.10;;;8.80;;
78794;SDS011;68144;50.892;3.064;2024-01-10T00:01:27;17.90;;;8.90;;
78794;SDS011;68144;50.892;3.064;2024-01-10T00:01:58;21.60;;;9.80;;
78794;SDS011;68144;50.892;3.064;2024-01-10T00:02:28;17.10;;;8.90;;
78794;SDS011;68144;50.892;3.064;2024-01-10T00:02:59;18.00;;;9.00;;
78794;SDS011;68144;50.892;3.064;2024-01-10T00:03:30;17.60;;;9.90;;
78794;SDS011;68144;50.892;3.064;2024-01-10T00:04:00;18.00;;;9.40;;
78794;SDS011;68144;50.892;3.064;2024-01-10T00:04:31;17.40;;;8.90;;
78794;SDS011;68144;50.892;3.064;2024-01-10T00:05:02;23.80;;;10.00;;
78794;SDS011;68144;50.892;3.064;2024-01-10T00:05:34;16.30;;;8.90;;
78794;SDS011;68144;50.892;3.064;2024-01-10T00:06:04;19.60;;;10.10;;
78794;SDS011;68144;50.892;3.064;2024-01-10T00:06:36;22.10;;;9.10;;
78794;SDS011;68144;50.892;3.064;2024-01-10T00:07:06;18.10;;;9.30;;
78794;SDS011;68144;50.892;3.064;2024-01-10T00:07:37;17.50;;;9.00;;
78794;SDS011;68144;50.892;3.064;2024-01-10T00:08:07;21.60;;;9.70;;
78794;SDS011;68144;50.892;3.064;2024-01-10T00:08:38;22.00;;;10.10;;
78794;SDS011;68144;50.892;3.064;2024-01-10T00:09:09;17.80;;;9.40;;
78794;SDS011;68144;50.892;3.064;2024-01-10T00:09:39;18.10;;;9.90;;
78794;SDS011;68144;50.892;3.064;2024-01-10T00:10:10;17.70;;;8.70;;
78794;SDS011;68144;50.892;3.064;2024-01-10T00:10:40;17.50;;;9.20;;
78794;SDS011;68144;50.892;3.064;2024-01-10T00:11:11;21.70;;;9.80;;
78794;SDS011;68144;50.892;3.064;2024-01-10T00:11:41;17.00;;;8.70;;
78794;SDS011;68144;50.892;3.064;2024-01-10T00:12:12;18.10;;;8.00;;
78794;SDS011;68144;50.892;3.064;2024-01-10T00:12:42;19.80;;;10.20;;
78794;SDS011;68144;50.892;3.064;2024-01-10T00:13:14;19.30;;;9.80;;
78794;SDS011;68144;50.892;3.064;2024-01-10T00:13:45;19.50;;;9.70;;
78794;SDS011;68144;50.892;3.064;2024-01-10T00:14:15;22.60;;;9.80;;
78794;SDS011;68144;50.892;3.064;2024-01-10T00:14:46;17.60;;;8.10;;
78794;SDS011;68144;50.892;3.064;2024-01-10T00:15:17;18.70;;;9.60;;
78794;SDS011;68144;50.892;3.064;2024-01-10T00:15:48;20.70;;;10.20;;
78794;SDS011;68144;50.892;3.064;2024-01-10T00:16:19;20.90;;;9.40;;
78794;SDS011;68144;50.892;3.064;2024-01-10T00:16:49;20.30;;;9.30;;
78794;SDS011;68144;50.892;3.064;2024-01-10T00:17:20;21.30;;;9.40;;
78794;SDS011;68144;50.892;3.064;2024-01-10T00:17:50;15.40;;;8.80;;
78794;SDS011;68144;50.892;3.064;2024-01-10T00:18:21;20.70;;;9.90;;
78794;SDS011;68144;50.892;3.064;2024-01-10T00:18:51;20.00;;;10.40;;
78794;SDS011;68144;50.892;3.064;2024-01-10T00:19:22;24.00;;;10.50;;
78794;SDS011;68144;50.892;3.064;2024-01-10T00:19:53;23.30;;;9.80;;
78794;SDS011;68144;50.892;3.064;2024-01-10T00:20:23;18.40;;;9.80;;
78794;SDS011;68144;50.892;3.064;2024-01-10T00:20:54;16.70;;;9.10;;
78794;SDS011;68144;50.892;3.064;2024-01-10T00:21:25;16.60;;;8.80;;
78794;SDS011;68144;50.892;3.064;2024-01-10T00:21:55;19.60;;;10.10;;
78794;SDS011;68144;50.892;3.064;2024-01-10T00:22:26;16.30;;;8.70;;
78794;SDS011;68144;50.892;3.064;2024-01-10T00:22:57;18.90;;;10.20;;
78794;SDS011;68144;50.892;3.064;2024-01-10T00:23:27;20.60;;;10.20;;
78794;SDS011;68144;50.892;3.064;2024-01-10T00:23:58;17.40;;;9.50;;
78794;SDS011;68144;50.892;3.064;2024-01-10T00:24:28;19.30;;;10.30;;
78794;SDS011;68144;50.892;3.064;2024-01-10T00:24:59;17.50;;;8.90;;
78794;SDS011;68144;50.892;3.064;2024-01-10T00:25:29;26.30;;;9.90;;
78794;SDS011;68144;50.892;3.064;2024-01-10T00:26:00;17.80;;;9.80;;
78794;SDS011;68144;50.892;3.064;2024-01-10T00:26:31;19.00;;;8.90;;
78794;SDS011;68144;50.892;3.064;2024-01-10T00:27:01;19.60;;;10.30;;
78794;SDS011;68144;50.892;3.064;2024-01-10T00:27:32;20.50;;;9.80;;
78794;SDS011;68144;50.892;3.064;2024-01-10T00:28:02;18.90;;;9.10;;
78794;SDS011;68144;50.892;3.064;2024-01-10T00:28:33;18.30;;;9.40;;
78794;SDS011;68144;50.892;3.064;2024-01-10T00:29:03;19.40;;;9.30;;
78794;SDS011;68144;50.892;3.064;2024-01-10T00:29:34;18.60;;;9.40;;
78794;SDS011;68144;50.892;3.064;2024-01-10T00:30:05;19.70;;;9.70;;
78794;SDS011;68144;50.892;3.064;2024-01-10T00:30:36;19.30;;;10.00;;
78794;SDS011;68144;50.892;3.064;2024-01-10T00:31:07;20.30;;;9.90;;
78794;SDS011;68144;50.892;3.064;2024-01-10T00:31:37;23.40;;;8.40;;
78794;SDS011;68144;50.892;3.064;2024-01-10T00:32:08;16.60;;;8.70;;
78794;SDS011;68144;50.892;3.064;2024-01-10T00:32:38;18.40;;;9.10;;
78794;SDS011;68144;50.892;3.064;2024-01-10T00:33:09;19.30;;;8.60;;
78794;SDS011;68144;50.892;3.064;2024-01-10T00:33:39;25.70;;;10.50;;
78794;SDS011;68144;50.892;3.064;2024-01-10T00:34:10;22.00;;;9.70;;
78794;SDS011;68144;50.892;3.064;2024-01-10T00:34:41;18.90;;;9.50;;
78794;SDS011;68144;50.892;3.064;2024-01-10T00:35:11;20.60;;;11.50;;
78794;SDS011;68144;50.892;3.064;2024-01-10T00:35:42;19.90;;;9.20;;
78794;SDS011;68144;50.892;3.064;2024-01-10T00:36:12;21.50;;;8.90;;
78794;SDS011;68144;50.892;3.064;2024-01-10T00:36:43;17.20;;;8.60;;
78794;SDS011;68144;50.892;3.064;2024-01-10T00:37:13;19.60;;;10.20;;
78794;SDS011;68144;50.892;3.064;2024-01-10T00:37:44;21.70;;;9.00;;
78794;SDS011;68144;50.892;3.064;2024-01-10T00:38:14;22.30;;;9.20;;
78794;SDS011;68144;50.892;3.064;2024-01-10T00:38:45;20.70;;;9.90;;
78794;SDS011;68144;50.892;3.064;2024-01-10T00:39:16;19.40;;;10.00;;
78794;SDS011;68144;50.892;3.064;2024-01-10T00:39:46;21.40;;;10.20;;
78794;SDS011;68144;50.892;3.064;2024-01-10T00:40:17;16.30;;;9.40;;
78794;SDS011;68144;50.892;3.064;2024-01-10T00:40:48;17.90;;;10.00;;
78794;SDS011;68144;50.892;3.064;2024-01-10T00:41:18;17.30;;;8.70;;
78794;SDS011;68144;50.892;3.064;2024-01-10T00:41:49;17.60;;;8.70;;
78794;SDS011;68144;50.892;3.064;2024-01-10T00:42:20;16.60;;;9.40;;
78794;SDS011;68144;50.892;3.064;2024-01-10T00:42:50;26.70;;;9.70;;
78794;SDS011;68144;50.892;3.064;2024-01-10T00:43:21;18.30;;;9.80;;
78794;SDS011;68144;50.892;3.064;2024-01-10T00:43:51;22.50;;;10.40;;
78794;SDS011;68144;50.892;3.064;2024-01-10T00:44:22;19.20;;;8.90;;
78794;SDS011;68144;50.892;3.064;2024-01-10T00:44:52;20.80;;;9.10;;
78794;SDS011;68144;50.892;3.064;2024-01-10T00:45:23;20.00;;;10.00;;
78794;SDS011;68144;50.892;3.064;2024-01-10T00:45:54;19.30;;;10.20;;
78794;SDS011;68144;50.892;3.064;2024-01-10T00:46:24;22.20;;;9.00;;
78794;SDS011;68144;50.892;3.064;2024-01-10T00:46:55;20.30;;;8.80;;
78794;SDS011;68144;50.892;3.064;2024-01-10T00:47:25;18.90;;;9.50;;
78794;SDS011;68144;50.892;3.064;2024-01-10T00:47:56;17.70;;;9.70;;
78794;SDS011;68144;50.892;3.064;2024-01-10T00:48:27;19.40;;;9.00;;
78794;SDS011;68144;50.892;3.064;2024-01-10T00:48:58;19.80;;;8.90;;
78794;SDS011;68144;50.892;3.064;2024-01-10T00:49:28;19.90;;;8.80;;
78794;SDS011;68144;50.892;3.064;2024-01-10T00:49:59;19.20;;;8.70;;
78794;SDS011;68144;50.892;3.064;2024-01-10T00:50:29;19.30;;;9.30;;
78794;SDS011;68144;50.892;3.064;2024-01-10T00:50:59;21.90;;;9.00;;
78794;SDS011;68144;50.892;3.064;2024-01-10T00:51:30;21.70;;;11.40;;
78794;SDS011;68144;50.892;3.064;2024-01-10T00:52:00;21.30;;;10.00;;
78794;SDS011;68144;50.892;3.064;2024-01-10T00:52:31;14.20;;;8.20;;
78794;SDS011;68144;50.892;3.064;2024-01-10T00:53:01;17.80;;;9.50;;
78794;SDS011;68144;50.892;3.064;2024-01-10T00:53:32;17.70;;;8.40;;
78794;SDS011;68144;50.892;3.064;2024-01-10T00:54:02;17.80;;;9.30;;
78794;SDS011;68144;50.892;3.064;2024-01-10T00:54:33;15.80;;;9.20;;
78794;SDS011;68144;50.892;3.064;2024-01-10T00:55:03;19.80;;;9.90;;
78794;SDS011;68144;50.892;3.064;2024-01-10T00:55:34;20.00;;;9.30;;
78794;SDS011;68144;50.892;3.064;2024-01-10T00:56:05;20.60;;;9.90;;
78794;SDS011;68144;50.892;3.064;2024-01-10T00:56:36;18.80;;;8.90;;
78794;SDS011;68144;50.892;3.064;2024-01-10T00:57:07;18.80;;;9.60;;
78794;SDS011;68144;50.892;3.064;2024-01-10T00:57:37;16.30;;;8.50;;
78794;SDS011;68144;50.892;3.064;2024-01-10T00:58:08;20.10;;;9.00;;
78794;SDS011;68144;50.892;3.064;2024-01-10T00:58:39;14.60;;;8.20;;
78794;SDS011;68144;50.892;3.064;2024-01-10T00:59:10;21.90;;;9.40;;
78794;SDS011;68144;50.892;3.064;2024-01-10T00:59:40;16.40;;;9.20;;
78794;SDS011;68144;50.892;3.064;2024-01-10T01:00:11;18.70;;;8.80;;
78794;SDS011;68144;50.892;3.064;2024-01-10T01:00:58;19.60;;;10.10;;
78794;SDS011;68144;50.892;3.064;2024-01-10T01:01:28;16.90;;;8.10;;
78794;SDS011;68144;50.892;3.064;2024-01-10T01:02:00;19.40;;;9.40;;
78794;SDS011;68144;50.892;3.064;2024-01-10T01:02:30;19.00;;;8.70;;
78794;SDS011;68144;50.892;3.064;2024-01-10T01:03:01;15.80;;;9.70;;
78794;SDS011;68144;50.892;3.064;2024-01-10T01:03:31;19.00;;;9.10;;
78794;SDS011;68144;50.892;3.064;2024-01-10T01:04:01;20.80;;;8.40;;
78794;SDS011;68144;50.892;3.064;2024-01-10T01:04:32;16.80;;;8.90;;
78794;SDS011;68144;50.892;3.064;2024-01-10T01:05:02;18.20;;;10.10;;
78794;SDS011;68144;50.892;3.064;2024-01-10T01:05:33;21.40;;;9.00;;
78794;SDS011;68144;50.892;3.064;2024-01-10T01:06:03;17.60;;;8.70;;
78794;SDS011;68144;50.892;3.064;2024-01-10T01:06:34;18.60;;;9.90;;
78794;SDS011;68144;50.892;3.064;2024-01-10T01:07:04;20.20;;;9.40;;
78794;SDS011;68144;50.892;3.064;2024-01-10T01:07:35;18.00;;;9.30;;
78794;SDS011;68144;50.892;3.064;2024-01-10T01:08:06;15.90;;;8.80;;
78794;SDS011;68144;50.892;3.064;2024-01-10T01:08:37;16.50;;;9.10;;
78794;SDS011;68144;50.892;3.064;2024-01-10T01:09:07;18.60;;;9.00;;
78794;SDS011;68144;50.892;3.064;2024-01-10T01:09:37;20.70;;;8.70;;
78794;SDS011;68144;50.892;3.064;2024-01-10T01:10:08;19.90;;;8.70;;
78794;SDS011;68144;50.892;3.064;2024-01-10T01:10:39;19.50;;;8.90;;
78794;SDS011;68144;50.892;3.064;2024-01-10T01:11:09;17.80;;;8.90;;
78794;SDS011;68144;50.892;3.064;2024-01-10T01:11:40;19.30;;;10.50;;
78794;SDS011;68144;50.892;3.064;2024-01-10T01:12:11;16.30;;;9.40;;
78794;SDS011;68144;50.892;3.064;2024-01-10T01:12:41;19.40;;;9.60;;
78794;SDS011;68144;50.892;3.064;2024-01-10T01:13:12;19.10;;;9.50;;
78794;SDS011;68144;50.892;3.064;2024-01-10T01:13:42;19.10;;;10.10;;
78794;SDS011;68144;50.892;3.064;2024-01-10T01:14:13;20.90;;;10.00;;
78794;SDS011;68144;50.892;3.064;2024-01-10T01:14:43;22.10;;;10.20;;
78794;SDS011;68144;50.892;3.064;2024-01-10T01:15:14;20.20;;;8.10;;
78794;SDS011;68144;50.892;3.064;2024-01-10T01:15:45;19.50;;;8.90;;
78794;SDS011;68144;50.892;3.064;2024-01-10T01:16:15;16.50;;;9.40;;
78794;SDS011;68144;50.892;3.064;2024-01-10T01:16:45;22.90;;;10.30;;
78794;SDS011;68144;50.892;3.064;2024-01-10T01:17:16;18.80;;;9.20;;
78794;SDS011;68144;50.892;3.064;2024-01-10T01:17:46;19.80;;;9.70;;
78794;SDS011;68144;50.892;3.064;2024-01-10T01:18:17;18.00;;;8.50;;
78794;SDS011;68144;50.892;3.064;2024-01-10T01:18:48;19.80;;;8.90;;
78794;SDS011;68144;50.892;3.064;2024-01-10T01:19:18;24.20;;;10.30;;
78794;SDS011;68144;50.892;3.064;2024-01-10T01:19:49;17.40;;;9.70;;
78794;SDS011;68144;50.892;3.064;2024-01-10T01:20:19;20.60;;;9.20;;
78794;SDS011;68144;50.892;3.064;2024-01-10T01:20:50;21.10;;;9.50;;
78794;SDS011;68144;50.892;3.064;2024-01-10T01:21:21;18.70;;;10.20;;
78794;SDS011;68144;50.892;3.064;2024-01-10T01:21:52;20.30;;;9.40;;
78794;SDS011;68144;50.892;3.064;2024-01-10T01:22:22;23.00;;;9.70;;
78794;SDS011;68144;50.892;3.064;2024-01-10T01:22:53;18.20;;;9.20;;
78794;SDS011;68144;50.892;3.064;2024-01-10T01:23:24;18.50;;;9.20;;
78794;SDS011;68144;50.892;3.064;2024-01-10T01:23:55;19.60;;;9.30;;
78794;SDS011;68144;50.892;3.064;2024-01-10T01:24:25;18.20;;;8.90;;
78794;SDS011;68144;50.892;3.064;2024-01-10T01:24:56;19.70;;;9.40;;
78794;SDS011;68144;50.892;3.064;2024-01-10T01:25:26;21.20;;;9.90;;
78794;SDS011;68144;50.892;3.064;2024-01-10T01:25:57;18.40;;;9.30;;
78794;SDS011;68144;50.892;3.064;2024-01-10T01:26:27;19.20;;;9.20;;
78794;SDS011;68144;50.892;3.064;2024-01-10T01:26:58;23.90;;;10.00;;
78794;SDS011;68144;50.892;3.064;2024-01-10T01:27:28;18.50;;;10.20;;
78794;SDS011;68144;50.892;3.064;2024-01-10T01:27:58;18.70;;;9.10;;
78794;SDS011;68144;50.892;3.064;2024-01-10T01:28:29;23.80;;;10.30;;
78794;SDS011;68144;50.892;3.064;2024-01-10T01:29:00;22.50;;;9.80;;
78794;SDS011;68144;50.892;3.064;2024-01-10T01:29:30;19.20;;;9.20;;
78794;SDS011;68144;50.892;3.064;2024-01-10T01:30:01;28.30;;;9.70;;
78794;SDS011;68144;50.892;3.064;2024-01-10T01:30:31;18.80;;;9.80;;
78794;SDS011;68144;50.892;3.064;2024-01-10T01:31:02;18.80;;;9.50;;
78794;SDS011;68144;50.892;3.064;2024-01-10T01:31:33;18.00;;;9.00;;
78794;SDS011;68144;50.892;3.064;2024-01-10T01:32:03;21.90;;;9.30;;
78794;SDS011;68144;50.892;3.064;2024-01-10T01:32:34;23.50;;;9.30;;
78794;SDS011;68144;50.892;3.064;2024-01-10T01:33:05;21.70;;;10.20;;
78794;SDS011;68144;50.892;3.064;2024-01-10T01:33:35;20.40;;;9.60;;
78794;SDS011;68144;50.892;3.064;2024-01-10T01:34:06;22.60;;;9.20;;
78794;SDS011;68144;50.892;3.064;2024-01-10T01:34:37;21.10;;;11.80;;
78794;SDS011;68144;50.892;3.064;2024-01-10T01:35:07;21.30;;;9.60;;
78794;SDS011;68144;50.892;3.064;2024-01-10T01:35:38;21.50;;;9.60;;
78794;SDS011;68144;50.892;3.064;2024-01-10T01:36:09;21.20;;;11.10;;
78794;SDS011;68144;50.892;3.064;2024-01-10T01:36:39;21.00;;;9.70;;
78794;SDS011;68144;50.892;3.064;2024-01-10T01:37:10;19.70;;;9.90;;
78794;SDS011;68144;50.892;3.064;2024-01-10T01:37:41;23.90;;;10.40;;
78794;SDS011;68144;50.892;3.064;2024-01-10T01:38:11;21.80;;;10.40;;
78794;SDS011;68144;50.892;3.064;2024-01-10T01:38:42;23.60;;;10.80;;
78794;SDS011;68144;50.892;3.064;2024-01-10T01:39:13;17.30;;;10.30;;
78794;SDS011;68144;50.892;3.064;2024-01-10T01:39:44;19.40;;;10.00;;
78794;SDS011;68144;50.892;3.064;2024-01-10T01:40:14;17.60;;;10.30;;
78794;SDS011;68144;50.892;3.064;2024-01-10T01:40:45;21.10;;;10.40;;
78794;SDS011;68144;50.892;3.064;2024-01-10T01:41:16;22.50;;;10.80;;
78794;SDS011;68144;50.892;3.064;2024-01-10T01:41:47;21.20;;;9.80;;
78794;SDS011;68144;50.892;3.064;2024-01-10T01:42:18;21.30;;;10.20;;
78794;SDS011;68144;50.892;3.064;2024-01-10T01:42:48;22.00;;;10.30;;
78794;SDS011;68144;50.892;3.064;2024-01-10T01:43:22;21.40;;;10.40;;
78794;SDS011;68144;50.892;3.064;2024-01-10T01:43:54;21.00;;;9.90;;
78794;SDS011;68144;50.892;3.064;2024-01-10T01:44:25;24.50;;;10.70;;
78794;SDS011;68144;50.892;3.064;2024-01-10T01:44:55;21.70;;;10.80;;
78794;SDS011;68144;50.892;3.064;2024-01-10T01:45:26;21.00;;;11.40;;
78794;SDS011;68144;50.892;3.064;2024-01-10T01:45:56;24.30;;;10.10;;
78794;SDS011;68144;50.892;3.064;2024-01-10T01:46:27;22.40;;;10.90;;
78794;SDS011;68144;50.892;3.064;2024-01-10T01:46:58;19.70;;;10.10;;
78794;SDS011;68144;50.892;3.064;2024-01-10T01:47:28;24.60;;;11.20;;
78794;SDS011;68144;50.892;3.064;2024-01-10T01:47:59;23.10;;;10.40;;
78794;SDS011;68144;50.892;3.064;2024-01-10T01:48:29;20.80;;;9.70;;
78794;SDS011;68144;50.892;3.064;2024-01-10T01:49:00;23.90;;;11.30;;
78794;SDS011;68144;50.892;3.064;2024-01-10T01:49:30;23.40;;;11.10;;
78794;SDS011;68144;50.892;3.064;2024-01-10T01:50:01;23.20;;;10.50;;
78794;SDS011;68144;50.892;3.064;2024-01-10T01:50:33;21.70;;;11.90;;
78794;SDS011;68144;50.892;3.064;2024-01-10T01:51:06;18.60;;;10.30;;
78794;SDS011;68144;50.892;3.064;2024-01-10T01:51:37;23.90;;;10.50;;
78794;SDS011;68144;50.892;3.064;2024-01-10T01:52:10;23.20;;;12.20;;
78794;SDS011;68144;50.892;3.064;2024-01-10T01:52:41;23.10;;;11.20;;
78794;SDS011;68144;50.892;3.064;2024-01-10T01:53:12;23.00;;;11.00;;
78794;SDS011;68144;50.892;3.064;2024-01-10T01:53:44;23.80;;;10.90;;
78794;SDS011;68144;50.892;3.064;2024-01-10T01:54:15;22.40;;;11.40;;
78794;SDS011;68144;50.892;3.064;2024-01-10T01:54:45;23.60;;;11.60;;
78794;SDS011;68144;50.892;3.064;2024-01-10T01:55:17;24.30;;;11.00;;
78794;SDS011;68144;50.892;3.064;2024-01-10T01:55:47;26.60;;;11.60;;
78794;SDS011;68144;50.892;3.064;2024-01-10T01:56:18;22.30;;;11.50;;
78794;SDS011;68144;50.892;3.064;2024-01-10T01:56:49;22.30;;;11.10;;
78794;SDS011;68144;50.892;3.064;2024-01-10T01:57:20;26.60;;;12.30;;
78794;SDS011;68144;50.892;3.064;2024-01-10T01:57:51;25.70;;;11.50;;
78794;SDS011;68144;50.892;3.064;2024-01-10T01:58:22;23.90;;;11.90;;
78794;SDS011;68144;50.892;3.064;2024-01-10T01:58:53;22.70;;;11.70;;
78794;SDS011;68144;50.892;3.064;2024-01-10T01:59:24;25.80;;;12.20;;
78794;SDS011;68144;50.892;3.064;2024-01-10T01:59:54;26.00;;;12.30;;
78794;SDS011;68144;50.892;3.064;2024-01-10T02:00:25;24.80;;;11.90;;
78794;SDS011;68144;50.892;3.064;2024-01-10T02:00:55;21.80;;;10.80;;
78794;SDS011;68144;50.892;3.064;2024-01-10T02:01:26;30.80;;;13.40;;
78794;SDS011;68144;50.892;3.064;2024-01-10T02:01:57;27.10;;;12.30;;
78794;SDS011;68144;50.892;3.064;2024-01-10T02:02:28;28.90;;;11.90;;
78794;SDS011;68144;50.892;3.064;2024-01-10T02:03:00;26.00;;;11.50;;
78794;SDS011;68144;50.892;3.064;2024-01-10T02:03:31;27.00;;;11.40;;
78794;SDS011;68144;50.892;3.064;2024-01-10T02:04:03;25.20;;;10.90;;
78794;SDS011;68144;50.892;3.064;2024-01-10T02:04:33;24.10;;;11.00;;
78794;SDS011;68144;50.892;3.064;2024-01-10T02:05:04;21.10;;;11.00;;
78794;SDS011;68144;50.892;3.064;2024-01-10T02:05:35;22.90;;;10.90;;
78794;SDS011;68144;50.892;3.064;2024-01-10T02:06:06;22.50;;;11.70;;
78794;SDS011;68144;50.892;3.064;2024-01-10T02:06:37;25.90;;;11.10;;
78794;SDS011;68144;50.892;3.064;2024-01-10T02:07:07;24.10;;;11.30;;
78794;SDS011;68144;50.892;3.064;2024-01-10T02:07:38;26.20;;;11.90;;
78794;SDS011;68144;50.892;3.064;2024-01-10T02:08:09;24.80;;;13.00;;
78794;SDS011;68144;50.892;3.064;2024-01-10T02:08:39;24.00;;;11.70;;
78794;SDS011;68144;50.892;3.064;2024-01-10T02:09:10;25.60;;;11.60;;
78794;SDS011;68144;50.892;3.064;2024-01-10T02:09:41;25.80;;;11.60;;
78794;SDS011;68144;50.892;3.064;2024-01-10T02:10:11;21.60;;;11.70;;
78794;SDS011;68144;50.892;3.064;2024-01-10T02:10:42;26.70;;;12.40;;
78794;SDS011;68144;50.892;3.064;2024-01-10T02:11:13;26.20;;;12.30;;
78794;SDS011;68144;50.892;3.064;2024-01-10T02:11:43;28.90;;;13.20;;
78794;SDS011;68144;50.892;3.064;2024-01-10T02:12:14;24.80;;;11.90;;
78794;SDS011;68144;50.892;3.064;2024-01-10T02:12:45;25.90;;;12.40;;
78794;SDS011;68144;50.892;3.064;2024-01-10T02:13:16;27.00;;;11.70;;
78794;SDS011;68144;50.892;3.064;2024-01-10T02:13:47;29.80;;;14.30;;
78794;SDS011;68144;50.892;3.064;2024-01-10T02:14:17;29.50;;;13.80;;
78794;SDS011;68144;50.892;3.064;2024-01-10T02:14:48;29.60;;;13.30;;
78794;SDS011;68144;50.892;3.064;2024-01-10T02:15:19;23.30;;;12.20;;
78794;SDS011;68144;50.892;3.064;2024-01-10T02:15:49;25.60;;;12.60;;
78794;SDS011;68144;50.892;3.064;2024-01-10T02:16:20;30.60;;;14.00;;
78794;SDS011;68144;50.892;3.064;2024-01-10T02:17:22;23.80;;;12.50;;
78794;SDS011;68144;50.892;3.064;2024-01-10T02:17:52;23.40;;;11.50;;
78794;SDS011;68144;50.892;3.064;2024-01-10T02:18:22;28.30;;;13.20;;
78794;SDS011;68144;50.892;3.064;2024-01-10T02:18:53;24.30;;;12.80;;
78794;SDS011;68144;50.892;3.064;2024-01-10T02:19:23;32.50;;;13.30;;
78794;SDS011;68144;50.892;3.064;2024-01-10T02:20:10;31.70;;;13.50;;
78794;SDS011;68144;50.892;3.064;2024-01-10T02:20:52;27.10;;;12.40;;
78794;SDS011;68144;50.892;3.064;2024-01-10T02:21:22;27.20;;;12.60;;
78794;SDS011;68144;50.892;3.064;2024-01-10T02:21:53;29.70;;;14.00;;
78794;SDS011;68144;50.892;3.064;2024-01-10T02:22:24;30.00;;;13.60;;
78794;SDS011;68144;50.892;3.064;2024-01-10T02:22:54;27.60;;;13.00;;
78794;SDS011;68144;50.892;3.064;2024-01-10T02:23:25;28.90;;;13.20;;
78794;SDS011;68144;50.892;3.064;2024-01-10T02:23:55;25.90;;;13.00;;
78794;SDS011;68144;50.892;3.064;2024-01-10T02:24:26;27.40;;;13.80;;
78794;SDS011;68144;50.892;3.064;2024-01-10T02:24:57;30.80;;;14.50;;
78794;SDS011;68144;50.892;3.064;2024-01-10T02:25:27;26.30;;;14.40;;
78794;SDS011;68144;50.892;3.064;2024-01-10T02:25:58;28.00;;;14.20;;
78794;SDS011;68144;50.892;3.064;2024-01-10T02:26:28;26.60;;;13.60;;
78794;SDS011;68144;50.892;3.064;2024-01-10T02:26:59;29.40;;;13.20;;
78794;SDS011;68144;50.892;3.064;2024-01-10T02:27:30;24.60;;;12.80;;
78794;SDS011;68144;50.892;3.064;2024-01-10T02:28:00;25.10;;;13.60;;
78794;SDS011;68144;50.892;3.064;2024-01-10T02:28:31;30.30;;;13.90;;
78794;SDS011;68144;50.892;3.064;2024-01-10T02:29:01;29.40;;;13.30;;
78794;SDS011;68144;50.892;3.064;2024-01-10T02:29:33;23.50;;;12.90;;
78794;SDS011;68144;50.892;3.064;2024-01-10T02:30:04;26.40;;;12.20;;
78794;SDS011;68144;50.892;3.064;2024-01-10T02:30:36;27.60;;;13.50;;
78794;SDS011;68144;50.892;3.064;2024-01-10T02:31:07;26.40;;;13.80;;
78794;SDS011;68144;50.892;3.064;2024-01-10T02:31:38;25.30;;;12.80;;
78794;SDS011;68144;50.892;3.064;2024-01-10T02:32:08;28.30;;;13.30;;
78794;SDS011;68144;50.892;3.064;2024-01-10T02:32:40;29.20;;;13.70;;
78794;SDS011;68144;50.892;3.064;2024-01-10T02:33:10;31.10;;;13.80;;
78794;SDS011;68144;50.892;3.064;2024-01-10T02:33:41;25.80;;;13.30;;
78794;SDS011;68144;50.892;3.064;2024-01-10T02:34:11;28.30;;;13.80;;
78794;SDS011;68144;50.892;3.064;2024-01-10T02:34:42;29.10;;;12.60;;
78794;SDS011;68144;50.892;3.064;2024-01-10T02:35:12;31.00;;;14.20;;
78794;SDS011;68144;50.892;3.064;2024-01-10T02:35:42;28.30;;;13.20;;
78794;SDS011;68144;50.892;3.064;2024-01-10T02:36:13;26.10;;;13.10;;
78794;SDS011;68144;50.892;3.064;2024-01-10T02:36:43;27.20;;;12.60;;
78794;SDS011;68144;50.892;3.064;2024-01-10T02:37:14;29.70;;;13.10;;
78794;SDS011;68144;50.892;3.064;2024-01-10T02:37:44;28.30;;;13.10;;
78794;SDS011;68144;50.892;3.064;2024-01-10T02:38:15;27.90;;;12.10;;
78794;SDS011;68144;50.892;3.064;2024-01-10T02:38:45;28.20;;;14.10;;
78794;SDS011;68144;50.892;3.064;2024-01-10T02:39:17;26.70;;;12.30;;
78794;SDS011;68144;50.892;3.064;2024-01-10T02:39:48;28.60;;;13.00;;
78794;SDS011;68144;50.892;3.064;2024-01-10T02:40:18;26.00;;;13.00;;
78794;SDS011;68144;50.892;3.064;2024-01-10T02:40:49;23.10;;;12.90;;
78794;SDS011;68144;50.892;3.064;2024-01-10T02:41:20;25.20;;;12.70;;
78794;SDS011;68144;50.892;3.064;2024-01-10T02:41:51;28.00;;;14.30;;
78794;SDS011;68144;50.892;3.064;2024-01-10T02:42:21;30.80;;;14.00;;
78794;SDS011;68144;50.892;3.064;2024-01-10T02:42:52;25.70;;;12.30;;
78794;SDS011;68144;50.892;3.064;2024-01-10T02:43:22;23.90;;;12.60;;
78794;SDS011;68144;50.892;3.064;2024-01-10T02:43:53;26.30;;;12.80;;
78794;SDS011;68144;50.892;3.064;2024-01-10T02:44:23;26.50;;;12.90;;
78794;SDS011;68144;50.892;3.064;2024-01-10T02:44:54;24.30;;;12.00;;
78794;SDS011;68144;50.892;3.064;2024-01-10T02:45:25;28.20;;;12.00;;
78794;SDS011;68144;50.892;3.064;2024-01-10T02:45:55;27.80;;;13.60;;
78794;SDS011;68144;50.892;3.064;2024-01-10T02:46:26;25.30;;;11.60;;
78794;SDS011;68144;50.892;3.064;2024-01-10T02:47:00;28.00;;;13.30;;
78794;SDS011;68144;50.892;3.064;2024-01-10T02:47:30;26.10;;;12.70;;
78794;SDS011;68144;50.892;3.064;2024-01-10T02:48:00;24.20;;;12.60;;
78794;SDS011;68144;50.892;3.064;2024-01-10T02:48:31;26.00;;;11.80;;
78794;SDS011;68144;50.892;3.064;2024-01-10T02:49:01;25.20;;;12.40;;
78794;SDS011;68144;50.892;3.064;2024-01-10T02:49:32;24.90;;;12.70;;
78794;SDS011;68144;50.892;3.064;2024-01-10T02:50:03;27.90;;;13.30;;
78794;SDS011;68144;50.892;3.064;2024-01-10T02:51:05;24.40;;;11.00;;
78794;SDS011;68144;50.892;3.064;2024-01-10T02:51:36;26.30;;;13.20;;
78794;SDS011;68144;50.892;3.064;2024-01-10T02:52:06;29.00;;;12.00;;
78794;SDS011;68144;50.892;3.064;2024-01-10T02:52:37;31.40;;;11.70;;
78794;SDS011;68144;50.892;3.064;2024-01-10T02:53:07;26.10;;;12.70;;
78794;SDS011;68144;50.892;3.064;2024-01-10T02:53:38;28.30;;;13.30;;
78794;SDS011;68144;50.892;3.064;2024-01-10T02:54:09;25.90;;;11.90;;
78794;SDS011;68144;50.892;3.064;2024-01-10T02:54:39;29.80;;;15.30;;
78794;SDS011;68144;50.892;3.064;2024-01-10T02:55:10;22.80;;;12.30;;
78794;SDS011;68144;50.892;3.064;2024-01-10T02:55:40;26.00;;;12.30;;
78794;SDS011;68144;50.892;3.064;2024-01-10T02:56:12;26.50;;;12.80;;
78794;SDS011;68144;50.892;3.064;2024-01-10T02:56:42;30.00;;;13.40;;
78794;SDS011;68144;50.892;3.064;2024-01-10T02:57:12;23.70;;;12.20;;
78794;SDS011;68144;50.892;3.064;2024-01-10T02:57:43;24.90;;;12.20;;
78794;SDS011;68144;50.892;3.064;2024-01-10T02:58:14;25.70;;;13.20;;
78794;SDS011;68144;50.892;3.064;2024-01-10T02:58:44;29.50;;;12.60;;
78794;SDS011;68144;50.892;3.064;2024-01-10T02:59:15;23.30;;;11.30;;
78794;SDS011;68144;50.892;3.064;2024-01-10T02:59:45;29.60;;;12.90;;
78794;SDS011;68144;50.892;3.064;2024-01-10T03:00:15;24.60;;;11.90;;
78794;SDS011;68144;50.892;3.064;2024-01-10T03:00:46;23.50;;;10.80;;
78794;SDS011;68144;50.892;3.064;2024-01-10T03:01:16;28.20;;;11.50;;
78794;SDS011;68144;50.892;3.064;2024-01-10T03:01:47;22.80;;;11.40;;
78794;SDS011;68144;50.892;3.064;2024-01-10T03:02:18;27.70;;;12.40;;